createdAt,value
2023-04-30T00:00:09.547Z,100272.41
2023-04-30T00:02:40.204Z,100267.22
2023-04-30T00:05:08.385Z,100271.53
2023-04-30T00:07:35.989Z,100272.28
2023-04-30T00:10:05.546Z,100272.28
2023-04-30T00:12:33.226Z,100275.69
2023-04-30T00:15:01.423Z,100274.69
2023-04-30T00:17:29.101Z,100284.06
2023-04-30T00:19:57.036Z,100286.59
2023-04-30T00:22:24.892Z,100284.91
2023-04-30T00:24:52.439Z,100287.38
2023-04-30T00:27:21.590Z,100290.69
2023-04-30T00:29:49.199Z,100290.69
2023-04-30T00:32:16.857Z,100289.03
2023-04-30T00:34:44.544Z,100295.13
2023-04-30T00:37:12.689Z,100295.84
2023-04-30T00:39:40.277Z,100292.41
2023-04-30T00:42:08.208Z,100287.25
2023-04-30T00:44:37.194Z,100290.69
2023-04-30T00:47:04.730Z,100287.22
2023-04-30T00:49:32.448Z,100286.53
2023-04-30T00:52:01.273Z,100285.66
2023-04-30T00:54:28.789Z,100290.75
2023-04-30T00:56:56.340Z,100283.94
2023-04-30T00:59:24.142Z,100277.06
2023-04-30T01:01:53.346Z,100271.91
2023-04-30T01:04:21.447Z,100273.56
2023-04-30T01:06:49.080Z,100265.88
2023-04-30T01:09:16.747Z,100271.91
2023-04-30T01:11:57.463Z,100279.66
2023-04-30T01:14:31.026Z,100270.88
2023-04-30T01:17:07.556Z,100277.84
2023-04-30T01:19:46.910Z,100274.50
2023-04-30T01:22:31.101Z,100278.72
2023-04-30T01:25:08.300Z,100270.16
2023-04-30T01:28:06.293Z,100277.84
2023-04-30T01:30:35.905Z,100275.31
2023-04-30T01:33:04.353Z,100272.63
2023-04-30T01:35:50.416Z,100268.34
2023-04-30T01:38:29.139Z,100271.78
2023-04-30T01:41:03.773Z,100270.03
2023-04-30T01:43:40.736Z,100272.69
2023-04-30T01:46:19.673Z,100263.31
2023-04-30T01:48:54.988Z,100265.00
2023-04-30T01:51:29.942Z,100268.41
2023-04-30T01:54:02.065Z,100264.00
2023-04-30T01:56:33.241Z,100261.28
2023-04-30T01:59:03.417Z,100257.84
2023-04-30T02:01:33.756Z,100251.00
2023-04-30T02:04:02.205Z,100253.69
2023-04-30T02:06:30.383Z,100260.59
2023-04-30T02:09:02.323Z,100256.31
2023-04-30T02:11:30.167Z,100257.22
2023-04-30T02:13:57.696Z,100261.47
2023-04-30T02:16:26.721Z,100259.84
2023-04-30T02:18:54.946Z,100263.31
2023-04-30T02:21:22.636Z,100266.06
2023-04-30T02:23:50.303Z,100266.97
2023-04-30T02:26:17.878Z,100260.03
2023-04-30T02:28:45.580Z,100261.72
2023-04-30T02:31:13.332Z,100261.72
2023-04-30T02:33:42.299Z,100267.94
2023-04-30T02:36:10.033Z,100256.72
2023-04-30T02:38:37.679Z,100267.00
2023-04-30T02:41:05.260Z,100264.44
2023-04-30T02:43:32.886Z,100266.22
2023-04-30T02:46:01.135Z,100258.53
2023-04-30T02:48:28.713Z,100258.66
2023-04-30T02:50:57.596Z,100263.69
2023-04-30T02:53:25.184Z,100261.97
2023-04-30T02:55:52.774Z,100258.53
2023-04-30T02:58:20.767Z,100260.28
2023-04-30T03:00:48.385Z,100262.06
2023-04-30T03:03:16.191Z,100253.47
2023-04-30T03:05:44.822Z,100259.47
2023-04-30T03:08:13.756Z,100256.88
2023-04-30T03:10:41.363Z,100254.22
2023-04-30T03:13:09.138Z,100258.53
2023-04-30T03:15:36.695Z,100253.38
2023-04-30T03:18:04.316Z,100256.81
2023-04-30T03:20:31.927Z,100256.72
2023-04-30T03:22:59.450Z,100253.25
2023-04-30T03:25:28.382Z,100255.84
2023-04-30T03:27:57.252Z,100251.53
2023-04-30T03:30:26.588Z,100248.09
2023-04-30T03:32:54.309Z,100244.63
2023-04-30T03:35:22.382Z,100248.09
2023-04-30T03:37:50.016Z,100253.25
2023-04-30T03:40:17.628Z,100254.09
2023-04-30T03:42:47.170Z,100246.25
2023-04-30T03:45:15.861Z,100253.09
2023-04-30T03:47:44.295Z,100245.38
2023-04-30T03:50:12.554Z,100246.19
2023-04-30T03:52:40.238Z,100246.81
2023-04-30T03:55:08.677Z,100243.25
2023-04-30T03:57:36.333Z,100252.59
2023-04-30T04:00:07.588Z,100249.22
2023-04-30T04:02:40.790Z,100254.38
2023-04-30T04:05:11.066Z,100250.72
2023-04-30T04:07:39.032Z,100252.41
2023-04-30T04:10:07.756Z,100250.63
2023-04-30T04:12:35.360Z,100254.03
2023-04-30T04:15:02.920Z,100254.91
2023-04-30T04:17:32.400Z,100249.75
2023-04-30T04:20:00.093Z,100256.66
2023-04-30T04:22:28.088Z,100257.56
2023-04-30T04:24:56.308Z,100259.28
2023-04-30T04:27:25.085Z,100259.31
2023-04-30T04:29:55.108Z,100272.22
2023-04-30T04:32:24.189Z,100256.72
2023-04-30T04:34:54.274Z,100263.63
2023-04-30T04:37:21.881Z,100265.38
2023-04-30T04:39:49.575Z,100267.16
2023-04-30T04:42:17.502Z,100276.53
2023-04-30T04:44:45.094Z,100271.44
2023-04-30T04:47:12.832Z,100271.50
2023-04-30T04:49:40.717Z,100275.81
2023-04-30T04:52:10.919Z,100278.38
2023-04-30T04:54:38.494Z,100271.63
2023-04-30T04:57:06.180Z,100271.59
2023-04-30T04:59:33.688Z,100270.03
2023-04-30T05:02:01.479Z,100282.22
2023-04-30T05:04:30.325Z,100278.72
2023-04-30T05:06:57.996Z,100278.81
2023-04-30T05:09:26.884Z,100277.22
2023-04-30T05:11:54.537Z,100279.91
2023-04-30T05:14:22.161Z,100280.88
2023-04-30T05:16:49.777Z,100278.53
2023-04-30T05:19:17.306Z,100286.38
2023-04-30T05:21:44.840Z,100282.09
2023-04-30T05:24:12.344Z,100278.59
2023-04-30T05:26:41.393Z,100279.50
2023-04-30T05:29:10.483Z,100284.78
2023-04-30T05:31:38.195Z,100279.69
2023-04-30T05:34:05.870Z,100281.41
2023-04-30T05:36:33.560Z,100281.59
2023-04-30T05:39:01.060Z,100285.19
2023-04-30T05:41:28.580Z,100282.75
2023-04-30T05:43:57.510Z,100288.88
2023-04-30T05:46:25.173Z,100283.94
2023-04-30T05:48:52.876Z,100284.03
2023-04-30T05:51:20.467Z,100284.91
2023-04-30T05:53:47.999Z,100282.44
2023-04-30T05:56:15.589Z,100277.34
2023-04-30T05:58:43.115Z,100286.06
2023-04-30T06:01:12.330Z,100282.63
2023-04-30T06:03:39.925Z,100288.81
2023-04-30T06:06:07.827Z,100286.31
2023-04-30T06:08:35.354Z,100298.47
2023-04-30T06:11:04.993Z,100296.91
2023-04-30T06:13:33.134Z,100291.97
2023-04-30T06:16:00.714Z,100287.69
2023-04-30T06:18:29.682Z,100288.66
2023-04-30T06:20:57.256Z,100283.63
2023-04-30T06:23:24.808Z,100282.84
2023-04-30T06:25:52.530Z,100293.22
2023-04-30T06:28:20.141Z,100287.25
2023-04-30T06:30:48.520Z,100286.41
2023-04-30T06:33:16.070Z,100279.63
2023-04-30T06:35:44.921Z,100282.38
2023-04-30T06:38:12.468Z,100284.16
2023-04-30T06:40:40.167Z,100289.38
2023-04-30T06:43:07.794Z,100289.47
2023-04-30T06:45:35.369Z,100293.09
2023-04-30T06:48:02.970Z,100284.47
2023-04-30T06:50:30.564Z,100282.84
2023-04-30T06:52:59.408Z,100286.53
2023-04-30T06:55:28.032Z,100286.63
2023-04-30T06:57:57.727Z,100277.97
2023-04-30T07:00:26.400Z,100279.75
2023-04-30T07:02:54.079Z,100286.81
2023-04-30T07:05:21.770Z,100288.56
2023-04-30T07:07:49.345Z,100290.34
2023-04-30T07:10:18.588Z,100288.56
2023-04-30T07:12:46.309Z,100291.31
2023-04-30T07:15:13.870Z,100294.00
2023-04-30T07:17:42.031Z,100289.78
2023-04-30T07:20:10.801Z,100298.47
2023-04-30T07:22:38.321Z,100283.81
2023-04-30T07:25:07.301Z,100287.31
2023-04-30T07:27:36.185Z,100280.53
2023-04-30T07:30:04.004Z,100281.47
2023-04-30T07:32:31.683Z,100275.50
2023-04-30T07:34:59.259Z,100281.69
2023-04-30T07:37:27.018Z,100277.50
2023-04-30T07:39:54.808Z,100273.25
2023-04-30T07:42:23.214Z,100277.69
2023-04-30T07:44:52.825Z,100276.03
2023-04-30T07:47:20.788Z,100279.53
2023-04-30T07:49:48.392Z,100273.53
2023-04-30T07:52:15.937Z,100263.97
2023-04-30T07:54:43.501Z,100257.13
2023-04-30T07:57:11.091Z,100267.59
2023-04-30T07:59:38.801Z,100263.38
2023-04-30T08:02:08.606Z,100268.63
2023-04-30T08:04:36.390Z,100264.47
2023-04-30T08:07:04.442Z,100262.72
2023-04-30T08:09:32.099Z,100269.66
2023-04-30T08:11:59.662Z,100266.31
2023-04-30T08:14:27.278Z,100262.94
2023-04-30T08:16:55.081Z,100275.97
2023-04-30T08:19:24.256Z,100270.91
2023-04-30T08:21:51.904Z,100270.16
2023-04-30T08:24:19.508Z,100272.88
2023-04-30T08:26:47.174Z,100279.91
2023-04-30T08:29:22.198Z,100275.69
2023-04-30T08:31:49.934Z,100281.84
2023-04-30T08:34:17.681Z,100281.03
2023-04-30T08:36:47.214Z,100285.34
2023-04-30T08:39:15.823Z,100281.06
2023-04-30T08:41:47.994Z,100281.03
2023-04-30T08:44:15.539Z,100268.97
2023-04-30T08:46:44.677Z,100277.59
2023-04-30T08:49:15.429Z,100280.19
2023-04-30T08:51:47.848Z,100288.84
2023-04-30T08:54:15.492Z,100286.28
2023-04-30T08:56:43.150Z,100273.22
2023-04-30T08:59:11.161Z,100281.00
2023-04-30T09:01:38.790Z,100274.13
2023-04-30T09:04:07.311Z,100279.31
2023-04-30T09:06:35.095Z,100281.94
2023-04-30T09:09:12.351Z,100274.19
2023-04-30T09:11:40.606Z,100277.72
2023-04-30T09:14:08.668Z,100270.78
2023-04-30T09:16:47.505Z,100265.59
2023-04-30T09:19:28.839Z,100276.91
2023-04-30T09:21:56.669Z,100262.13
2023-04-30T09:24:26.244Z,100263.91
2023-04-30T09:26:54.883Z,100264.78
2023-04-30T09:29:22.412Z,100274.31
2023-04-30T09:31:50.234Z,100270.84
2023-04-30T09:34:18.004Z,100268.22
2023-04-30T09:36:55.986Z,100270.81
2023-04-30T09:39:25.012Z,100274.25
2023-04-30T09:41:52.888Z,100265.59
2023-04-30T09:44:30.525Z,100264.75
2023-04-30T09:47:00.333Z,100275.19
2023-04-30T09:49:33.292Z,100276.06
2023-04-30T09:52:04.668Z,100269.09
2023-04-30T09:54:41.019Z,100263.03
2023-04-30T09:57:12.209Z,100263.03
2023-04-30T09:59:46.183Z,100267.38
2023-04-30T10:02:15.749Z,100258.69
2023-04-30T10:04:50.228Z,100259.53
2023-04-30T10:07:22.701Z,100263.78
2023-04-30T10:10:00.249Z,100261.13
2023-04-30T10:12:38.654Z,100248.00
2023-04-30T10:15:14.208Z,100258.44
2023-04-30T10:17:44.587Z,100263.56
2023-04-30T10:20:14.088Z,100254.84
2023-04-30T10:22:43.599Z,100258.28
2023-04-30T10:25:13.774Z,100259.94
2023-04-30T10:27:41.731Z,100256.59
2023-04-30T10:30:19.614Z,100252.22
2023-04-30T10:32:53.960Z,100239.31
2023-04-30T10:35:28.177Z,100242.78
2023-04-30T10:38:00.549Z,100236.69
2023-04-30T10:40:36.880Z,100237.59
2023-04-30T10:43:07.083Z,100244.56
2023-04-30T10:45:38.829Z,100237.56
2023-04-30T10:48:07.996Z,100227.06
2023-04-30T10:50:43.483Z,100230.50
2023-04-30T10:53:16.902Z,100221.75
2023-04-30T10:55:53.058Z,100222.63
2023-04-30T10:58:28.750Z,100226.91
2023-04-30T11:01:08.432Z,100225.16
2023-04-30T11:03:42.338Z,100223.34
2023-04-30T11:06:12.711Z,100217.97
2023-04-30T11:08:43.757Z,100215.59
2023-04-30T11:11:15.249Z,100215.47
2023-04-30T11:13:46.276Z,100219.75
2023-04-30T11:16:14.279Z,100205.72
2023-04-30T11:18:46.023Z,100213.72
2023-04-30T11:21:13.978Z,100208.22
2023-04-30T11:23:45.077Z,100202.94
2023-04-30T11:26:14.320Z,100215.47
2023-04-30T11:28:53.218Z,100201.44
2023-04-30T11:31:21.705Z,100199.28
2023-04-30T11:33:50.310Z,100200.84
2023-04-30T11:36:18.057Z,100184.38
2023-04-30T11:38:46.250Z,100193.75
2023-04-30T11:41:15.994Z,100190.53
2023-04-30T11:43:43.919Z,100188.81
2023-04-30T11:46:13.631Z,100191.44
2023-04-30T11:48:44.640Z,100195.72
2023-04-30T11:51:16.462Z,100194.31
2023-04-30T11:53:46.593Z,100187.28
2023-04-30T11:56:18.519Z,100186.97
2023-04-30T11:58:47.787Z,100172.97
2023-04-30T12:01:16.379Z,100180.56
2023-04-30T12:03:45.098Z,100179.22
2023-04-30T12:06:13.556Z,100176.50
2023-04-30T12:08:42.858Z,100169.16
2023-04-30T12:11:25.250Z,100170.19
2023-04-30T12:13:54.842Z,100170.88
2023-04-30T12:16:22.619Z,100169.84
2023-04-30T12:18:52.819Z,100174.09
2023-04-30T12:21:22.749Z,100182.34
2023-04-30T12:23:50.571Z,100174.16
2023-04-30T12:26:18.737Z,100167.34
2023-04-30T12:28:49.649Z,100168.97
2023-04-30T12:31:18.857Z,100161.75
2023-04-30T12:33:54.858Z,100158.94
2023-04-30T12:36:22.544Z,100154.22
2023-04-30T12:38:50.683Z,100166.19
2023-04-30T12:41:19.543Z,100157.09
2023-04-30T12:43:49.535Z,100156.78
2023-04-30T12:46:29.541Z,100147.41
2023-04-30T12:48:57.293Z,100149.59
2023-04-30T12:51:24.897Z,100154.69
2023-04-30T12:53:52.564Z,100148.41
2023-04-30T12:56:20.079Z,100152.78
2023-04-30T12:58:50.869Z,100155.69
2023-04-30T13:01:20.475Z,100143.44
2023-04-30T13:03:49.682Z,100141.84
2023-04-30T13:06:17.809Z,100141.53
2023-04-30T13:08:57.920Z,100132.63
2023-04-30T13:11:28.679Z,100134.97
2023-04-30T13:13:56.740Z,100129.78
2023-04-30T13:16:25.665Z,100128.53
2023-04-30T13:18:55.535Z,100128.41
2023-04-30T13:21:24.706Z,100134.03
2023-04-30T13:23:54.510Z,100127.47
2023-04-30T13:26:23.683Z,100146.78
2023-04-30T13:28:51.598Z,100135.25
2023-04-30T13:31:19.402Z,100128.19
2023-04-30T13:33:49.374Z,100129.78
2023-04-30T13:36:18.385Z,100115.28
2023-04-30T13:38:45.978Z,100119.75
2023-04-30T13:41:13.866Z,100105.25
2023-04-30T13:43:42.654Z,100116.91
2023-04-30T13:46:10.666Z,100113.75
2023-04-30T13:48:38.594Z,100106.97
2023-04-30T13:51:06.589Z,100104.09
2023-04-30T13:53:36.650Z,100102.72
2023-04-30T13:56:07.502Z,100107.09
2023-04-30T13:58:35.078Z,100094.72
2023-04-30T14:01:02.931Z,100092.50
2023-04-30T14:03:31.203Z,100097.91
2023-04-30T14:05:58.952Z,100098.69
2023-04-30T14:08:26.623Z,100095.31
2023-04-30T14:10:55.832Z,100089.56
2023-04-30T14:13:23.592Z,100081.91
2023-04-30T14:15:51.225Z,100080.84
2023-04-30T14:18:22.451Z,100086.50
2023-04-30T14:20:50.017Z,100091.19
2023-04-30T14:23:17.548Z,100087.66
2023-04-30T14:25:45.409Z,100078.13
2023-04-30T14:28:14.334Z,100084.34
2023-04-30T14:30:42.137Z,100072.84
2023-04-30T14:33:12.267Z,100078.50
2023-04-30T14:35:39.918Z,100078.31
2023-04-30T14:38:07.664Z,100060.06
2023-04-30T14:40:35.509Z,100056.81
2023-04-30T14:43:03.101Z,100056.66
2023-04-30T14:45:33.678Z,100050.19
2023-04-30T14:48:04.621Z,100057.13
2023-04-30T14:50:33.200Z,100056.38
2023-04-30T14:53:00.745Z,100050.22
2023-04-30T14:55:28.836Z,100053.91
2023-04-30T14:57:56.374Z,100054.75
2023-04-30T15:00:23.971Z,100047.41
2023-04-30T15:02:52.913Z,100047.69
2023-04-30T15:05:21.029Z,100045.78
2023-04-30T15:07:48.773Z,100051.84
2023-04-30T15:10:16.441Z,100044.50
2023-04-30T15:12:44.022Z,100034.75
2023-04-30T15:15:12.829Z,100032.91
2023-04-30T15:17:41.191Z,100043.19
2023-04-30T15:20:11.257Z,100025.38
2023-04-30T15:22:38.986Z,100034.13
2023-04-30T15:25:07.448Z,100034.66
2023-04-30T15:27:35.010Z,100030.31
2023-04-30T15:30:02.549Z,100031.84
2023-04-30T15:32:30.115Z,100023.72
2023-04-30T15:34:57.633Z,100026.56
2023-04-30T15:37:26.951Z,100012.41
2023-04-30T15:39:54.862Z,100014.63
2023-04-30T15:42:22.709Z,100016.25
2023-04-30T15:44:50.493Z,100010.09
2023-04-30T15:47:18.114Z,100009.91
2023-04-30T15:49:45.741Z,100008.09
2023-04-30T15:52:13.286Z,100003.88
2023-04-30T15:54:42.196Z,100001.53
2023-04-30T15:57:09.887Z,100003.78
2023-04-30T15:59:37.392Z,99996.59
2023-04-30T16:02:05.082Z,99996.16
2023-04-30T16:04:32.699Z,100003.41
2023-04-30T16:07:01.108Z,99996.00
2023-04-30T16:09:28.860Z,99994.56
2023-04-30T16:11:58.721Z,100005.88
2023-04-30T16:14:26.569Z,99996.09
2023-04-30T16:16:54.267Z,99982.28
2023-04-30T16:19:21.918Z,99989.91
2023-04-30T16:21:49.535Z,99987.84
2023-04-30T16:24:17.106Z,99978.84
2023-04-30T16:26:44.682Z,99970.22
2023-04-30T16:29:13.583Z,99966.69
2023-04-30T16:31:41.938Z,99966.75
2023-04-30T16:34:11.902Z,99969.91
2023-04-30T16:36:39.567Z,99968.50
2023-04-30T16:39:07.130Z,99969.81
2023-04-30T16:41:35.188Z,99963.59
2023-04-30T16:44:02.720Z,99962.13
2023-04-30T16:46:31.743Z,99960.56
2023-04-30T16:48:59.446Z,99959.84
2023-04-30T16:51:27.525Z,99955.47
2023-04-30T16:53:55.084Z,99958.16
2023-04-30T16:56:22.613Z,99956.66
2023-04-30T16:58:50.165Z,99947.13
2023-04-30T17:01:17.733Z,99938.00
2023-04-30T17:03:47.185Z,99948.34
2023-04-30T17:06:15.100Z,99949.75
2023-04-30T17:08:42.703Z,99943.53
2023-04-30T17:11:10.567Z,99949.75
2023-04-30T17:13:38.642Z,99939.66
2023-04-30T17:16:06.839Z,99945.19
2023-04-30T17:18:34.515Z,99938.03
2023-04-30T17:21:03.471Z,99958.53
2023-04-30T17:23:31.803Z,99952.19
2023-04-30T17:25:59.358Z,99944.88
2023-04-30T17:28:27.480Z,99943.75
2023-04-30T17:30:55.733Z,99942.59
2023-04-30T17:33:25.180Z,99946.50
2023-04-30T17:35:53.072Z,99941.59
2023-04-30T17:38:22.084Z,99942.78
2023-04-30T17:40:49.652Z,99950.53
2023-04-30T17:43:17.212Z,99956.06
2023-04-30T17:45:45.419Z,99964.31
2023-04-30T17:48:12.984Z,99963.81
2023-04-30T17:50:40.551Z,99966.59
2023-04-30T17:53:08.132Z,99959.69
2023-04-30T17:55:37.305Z,99975.66
2023-04-30T17:58:05.004Z,99968.06
2023-04-30T18:00:32.590Z,99974.41
2023-04-30T18:03:00.188Z,99976.47
2023-04-30T18:05:27.882Z,99978.38
2023-04-30T18:07:55.568Z,99981.13
2023-04-30T18:10:23.163Z,99971.72
2023-04-30T18:12:53.963Z,99977.03
2023-04-30T18:15:21.742Z,99982.38
2023-04-30T18:17:49.358Z,99986.03
2023-04-30T18:20:16.935Z,99979.16
2023-04-30T18:22:44.468Z,99984.44
2023-04-30T18:25:12.937Z,99977.53
2023-04-30T18:27:41.743Z,99978.44
2023-04-30T18:30:12.728Z,99975.91
2023-04-30T18:32:41.626Z,99981.16
2023-04-30T18:35:10.221Z,99970.78
2023-04-30T18:37:37.797Z,99969.00
2023-04-30T18:40:06.095Z,99975.94
2023-04-30T18:42:34.612Z,99975.94
2023-04-30T18:45:02.323Z,99978.50
2023-04-30T18:47:32.828Z,99972.44
2023-04-30T18:50:00.349Z,99975.00
2023-04-30T18:52:27.952Z,99977.56
2023-04-30T18:54:55.494Z,99977.53
2023-04-30T18:57:23.193Z,99980.09
2023-04-30T18:59:50.734Z,99987.84
2023-04-30T19:02:18.435Z,99991.22
2023-04-30T19:04:47.313Z,99989.41
2023-04-30T19:07:14.974Z,99985.88
2023-04-30T19:09:45.129Z,99991.00
2023-04-30T19:12:14.916Z,99992.66
2023-04-30T19:14:42.476Z,100001.19
2023-04-30T19:17:10.149Z,99985.47
2023-04-30T19:19:37.797Z,99988.88
2023-04-30T19:22:07.023Z,99993.13
2023-04-30T19:24:34.631Z,99988.72
2023-04-30T19:27:04.065Z,99990.34
2023-04-30T19:29:31.709Z,99997.16
2023-04-30T19:31:59.928Z,99996.19
2023-04-30T19:34:27.859Z,100003.09
2023-04-30T19:36:55.447Z,100003.91
2023-04-30T19:39:30.118Z,99998.66
2023-04-30T19:41:57.875Z,100000.28
2023-04-30T19:44:25.532Z,100003.59
2023-04-30T19:46:53.129Z,100010.44
2023-04-30T19:49:20.667Z,100000.03
2023-04-30T19:51:48.301Z,99994.72
2023-04-30T19:54:16.174Z,99999.91
2023-04-30T19:56:45.152Z,99993.75
2023-04-30T19:59:12.862Z,99997.97
2023-04-30T20:01:42.356Z,99997.09
2023-04-30T20:04:10.661Z,99999.56
2023-04-30T20:06:38.501Z,100011.56
2023-04-30T20:09:06.325Z,100007.09
2023-04-30T20:11:33.999Z,100008.72
2023-04-30T20:14:02.956Z,100007.78
2023-04-30T20:16:30.708Z,100011.13
2023-04-30T20:18:58.473Z,100003.31
2023-04-30T20:21:26.093Z,100007.56
2023-04-30T20:23:53.690Z,100012.53
2023-04-30T20:26:21.572Z,100011.59
2023-04-30T20:28:49.135Z,100003.75
2023-04-30T20:31:18.104Z,99995.03
2023-04-30T20:33:46.633Z,99993.09
2023-04-30T20:36:14.484Z,99998.22
2023-04-30T20:38:41.977Z,99998.13
2023-04-30T20:41:10.206Z,99998.09
2023-04-30T20:43:38.002Z,99998.84
2023-04-30T20:46:05.773Z,99991.88
2023-04-30T20:48:34.859Z,99988.41
2023-04-30T20:51:02.395Z,99995.28
2023-04-30T20:53:30.659Z,99991.78
2023-04-30T20:56:00.256Z,99992.53
2023-04-30T20:58:28.064Z,99991.63
2023-04-30T21:00:56.599Z,99992.50
2023-04-30T21:03:24.324Z,99982.03
2023-04-30T21:05:53.445Z,99988.97
2023-04-30T21:08:20.961Z,99990.63
2023-04-30T21:10:48.671Z,99992.25
2023-04-30T21:13:17.028Z,99989.59
2023-04-30T21:15:45.380Z,99984.41
2023-04-30T21:18:12.999Z,99993.88
2023-04-30T21:20:40.537Z,99986.88
2023-04-30T21:23:09.501Z,99985.06
2023-04-30T21:25:37.854Z,99978.09
2023-04-30T21:28:05.463Z,99979.72
2023-04-30T21:30:33.132Z,99984.78
2023-04-30T21:33:00.920Z,99979.50
2023-04-30T21:35:32.757Z,99978.53
2023-04-30T21:38:00.304Z,99975.88
2023-04-30T21:40:33.190Z,99965.41
2023-04-30T21:43:01.119Z,99973.06
2023-04-30T21:45:28.682Z,99973.78
2023-04-30T21:47:56.349Z,99971.09
2023-04-30T21:50:24.604Z,99964.97
2023-04-30T21:52:52.113Z,99970.97
2023-04-30T21:55:19.922Z,99968.31
2023-04-30T21:57:51.325Z,99968.25
2023-04-30T22:00:19.098Z,99966.44
2023-04-30T22:02:50.614Z,99964.59
2023-04-30T22:05:19.472Z,99966.19
2023-04-30T22:07:47.586Z,99959.22
2023-04-30T22:10:15.617Z,99954.69
2023-04-30T22:12:47.148Z,99953.72
2023-04-30T22:15:16.827Z,99958.78
2023-04-30T22:17:46.160Z,99960.41
2023-04-30T22:20:13.932Z,99956.88
2023-04-30T22:22:41.734Z,99961.03
2023-04-30T22:25:10.387Z,99955.69
2023-04-30T22:27:38.006Z,99958.00
2023-04-30T22:30:06.718Z,99954.47
2023-04-30T22:32:35.697Z,99951.75
2023-04-30T22:35:03.882Z,99953.47
2023-04-30T22:37:31.470Z,99949.06
2023-04-30T22:39:59.252Z,99944.75
2023-04-30T22:42:27.334Z,99945.47
2023-04-30T22:44:55.608Z,99944.50
2023-04-30T22:47:23.354Z,99940.22
2023-04-30T22:49:52.351Z,99938.34
2023-04-30T22:52:19.951Z,99936.25
2023-04-30T22:54:47.680Z,99929.25
2023-04-30T22:57:15.282Z,99931.75
2023-04-30T22:59:42.920Z,99932.56
2023-04-30T23:02:10.500Z,99933.34
2023-04-30T23:04:38.316Z,99932.44
2023-04-30T23:07:07.367Z,99936.63
2023-04-30T23:09:35.558Z,99935.78
2023-04-30T23:12:04.774Z,99933.94
2023-04-30T23:14:32.304Z,99930.53
2023-04-30T23:17:00.695Z,99927.13
2023-04-30T23:19:28.390Z,99932.16
2023-04-30T23:21:56.742Z,99932.13
2023-04-30T23:24:26.220Z,99928.66
2023-04-30T23:26:55.126Z,99928.47
2023-04-30T23:29:22.680Z,99922.41
2023-04-30T23:31:50.914Z,99921.50
2023-04-30T23:34:18.441Z,99918.00
2023-04-30T23:36:46.070Z,99912.00
2023-04-30T23:39:13.594Z,99920.53
2023-04-30T23:41:42.452Z,99912.88
2023-04-30T23:44:10.006Z,99906.84
2023-04-30T23:46:37.520Z,99910.25
2023-04-30T23:49:05.192Z,99906.00
2023-04-30T23:51:33.327Z,99897.41
2023-04-30T23:54:00.977Z,99893.97
2023-04-30T23:56:28.584Z,99888.84
2023-04-30T23:58:57.812Z,99896.53
